createdAt,value
2023-04-25T00:01:14.865Z,12.09
2023-04-25T00:09:38.442Z,11.98
2023-04-25T00:18:01.415Z,11.87
2023-04-25T00:26:24.887Z,11.79
2023-04-25T00:34:47.827Z,11.70
2023-04-25T00:43:10.875Z,11.51
2023-04-25T00:51:35.812Z,11.33
2023-04-25T00:59:59.973Z,11.10
2023-04-25T01:08:26.611Z,10.73
2023-04-25T01:16:49.849Z,10.38
2023-04-25T01:25:13.084Z,10.09
2023-04-25T01:33:36.736Z,9.81
2023-04-25T01:42:01.257Z,9.66
2023-04-25T01:50:24.466Z,9.55
2023-04-25T01:58:48.256Z,9.44
2023-04-25T02:07:17.082Z,9.35
2023-04-25T02:15:49.694Z,9.21
2023-04-25T02:24:15.965Z,9.17
2023-04-25T02:32:41.104Z,9.23
2023-04-25T02:41:06.629Z,9.33
2023-04-25T02:49:29.965Z,9.47
2023-04-25T02:57:53.322Z,9.63
2023-04-25T03:06:26.716Z,9.68
2023-04-25T03:14:49.714Z,9.67
2023-04-25T03:23:12.918Z,9.70
2023-04-25T03:31:38.618Z,9.67
2023-04-25T03:40:02.244Z,9.66
2023-04-25T03:48:39.566Z,9.73
2023-04-25T03:57:03.679Z,9.80
2023-04-25T04:05:29.611Z,9.94
2023-04-25T04:13:53.418Z,10.55
2023-04-25T04:22:16.822Z,10.79
2023-04-25T04:30:42.222Z,10.45
2023-04-25T04:39:07.669Z,10.20
2023-04-25T04:47:51.670Z,10.13
2023-04-25T04:56:34.451Z,10.13
2023-04-25T05:05:16.890Z,10.17
2023-04-25T05:14:02.241Z,10.32
2023-04-25T05:22:34.147Z,10.50
2023-04-25T05:31:11.944Z,10.62
2023-04-25T05:39:53.546Z,10.77
2023-04-25T05:48:48.701Z,10.87
2023-04-25T05:57:30.005Z,10.90
2023-04-25T06:05:53.525Z,10.81
2023-04-25T06:14:16.865Z,10.76
2023-04-25T06:22:43.729Z,10.78
2023-04-25T06:31:07.733Z,10.76
2023-04-25T06:39:31.487Z,10.78
2023-04-25T06:47:54.798Z,10.82
2023-04-25T06:56:18.129Z,10.75
2023-04-25T07:04:50.622Z,10.70
2023-04-25T07:13:14.833Z,10.70
2023-04-25T07:21:38.775Z,10.68
2023-04-25T07:30:04.078Z,10.62
2023-04-25T07:38:27.781Z,10.61
2023-04-25T07:46:52.129Z,10.57
2023-04-25T07:55:16.639Z,10.49
2023-04-25T08:04:06.545Z,10.49
2023-04-25T08:12:41.834Z,10.56
2023-04-25T08:21:05.448Z,10.52
2023-04-25T08:29:30.178Z,10.45
2023-04-25T08:37:53.764Z,10.36
2023-04-25T08:46:21.207Z,10.28
2023-04-25T08:55:15.271Z,10.22
2023-04-25T09:03:39.153Z,10.18
2023-04-25T09:12:02.785Z,10.18
2023-04-25T09:20:27.713Z,10.20
2023-04-25T09:29:09.132Z,10.18
2023-04-25T09:37:36.457Z,9.98
2023-04-25T09:46:37.826Z,9.74
2023-04-25T09:55:04.930Z,9.62
2023-04-25T10:03:33.215Z,9.48
2023-04-25T10:12:18.084Z,9.37
2023-04-25T10:20:41.702Z,9.31
2023-04-25T10:29:05.520Z,9.19
2023-04-25T10:37:28.701Z,9.05
2023-04-25T10:45:54.761Z,8.95
2023-04-25T10:54:20.569Z,8.88
2023-04-25T11:02:54.453Z,8.82
2023-04-25T11:11:20.973Z,8.79
2023-04-25T11:19:44.095Z,8.81
2023-04-25T11:28:07.035Z,8.84
2023-04-25T11:36:31.847Z,8.93
2023-04-25T11:44:55.040Z,8.93
2023-04-25T11:53:19.277Z,8.94
2023-04-25T12:01:51.131Z,8.91
2023-04-25T12:10:17.238Z,8.86
2023-04-25T12:18:40.937Z,8.91
2023-04-25T12:27:07.223Z,9.03
2023-04-25T12:35:30.677Z,9.04
2023-04-25T12:43:54.604Z,8.98
2023-04-25T12:52:17.855Z,9.03
2023-04-25T13:00:41.617Z,9.14
2023-04-25T13:09:05.996Z,9.31
2023-04-25T13:17:29.029Z,9.49
2023-04-25T13:25:53.634Z,9.51
2023-04-25T13:34:17.280Z,9.58
2023-04-25T13:42:41.294Z,9.59
2023-04-25T13:51:04.502Z,9.54
2023-04-25T13:59:29.010Z,9.55
2023-04-25T14:07:53.113Z,9.55
2023-04-25T14:16:18.211Z,9.47
2023-04-25T14:24:41.601Z,9.34
2023-04-25T14:33:04.751Z,9.18
2023-04-25T14:41:30.427Z,9.03
2023-04-25T14:50:11.557Z,8.93
2023-04-25T14:58:34.898Z,8.84
2023-04-25T15:06:58.395Z,8.70
2023-04-25T15:15:26.524Z,8.62
2023-04-25T15:23:50.298Z,8.58
2023-04-25T15:32:13.504Z,8.58
2023-04-25T15:40:36.661Z,8.58
2023-04-25T15:48:59.644Z,8.49
2023-04-25T15:57:23.022Z,8.39
2023-04-25T16:05:45.972Z,8.40
2023-04-25T16:14:09.217Z,8.38
2023-04-25T16:22:32.650Z,8.25
2023-04-25T16:30:55.628Z,8.19
2023-04-25T16:39:19.121Z,8.14
2023-04-25T16:47:42.037Z,8.13
2023-04-25T16:56:07.677Z,8.17
2023-04-25T17:04:30.706Z,8.21
2023-04-25T17:12:54.796Z,8.22
2023-04-25T17:21:18.594Z,8.01
2023-04-25T17:29:41.906Z,7.82
2023-04-25T17:38:04.906Z,7.68
2023-04-25T17:46:29.547Z,7.54
2023-04-25T17:54:52.580Z,7.43
2023-04-25T18:03:16.649Z,7.38
2023-04-25T18:11:39.757Z,7.28
2023-04-25T18:20:02.857Z,7.13
2023-04-25T18:28:26.350Z,7.00
2023-04-25T18:36:49.581Z,6.91
2023-04-25T18:45:12.731Z,6.86
2023-04-25T18:53:35.748Z,6.82
2023-04-25T19:02:00.701Z,6.73
2023-04-25T19:10:25.433Z,6.61
2023-04-25T19:18:48.747Z,6.54
2023-04-25T19:27:11.843Z,6.49
2023-04-25T19:35:34.843Z,6.45
2023-04-25T19:44:01.035Z,6.43
2023-04-25T19:52:24.082Z,6.40
2023-04-25T20:00:47.412Z,6.38
2023-04-25T20:09:11.821Z,6.39
2023-04-25T20:17:34.930Z,6.39
2023-04-25T20:25:58.127Z,6.41
2023-04-25T20:34:22.056Z,6.41
2023-04-25T20:42:46.179Z,6.39
2023-04-25T20:51:10.521Z,6.39
2023-04-25T20:59:33.775Z,6.38
2023-04-25T21:07:57.664Z,6.38
2023-04-25T21:16:21.308Z,6.31
2023-04-25T21:24:44.406Z,6.28
2023-04-25T21:33:07.442Z,6.30
2023-04-25T21:41:31.112Z,6.35
2023-04-25T21:49:54.007Z,6.39
2023-04-25T21:58:17.002Z,6.41
2023-04-25T22:06:39.947Z,6.44
2023-04-25T22:15:03.802Z,6.46
2023-04-25T22:23:26.905Z,6.48
2023-04-25T22:31:49.978Z,6.48
2023-04-25T22:40:13.516Z,6.48
2023-04-25T22:48:36.731Z,6.50
2023-04-25T22:57:00.213Z,6.52
2023-04-25T23:05:24.853Z,6.55
2023-04-25T23:13:48.191Z,6.51
2023-04-25T23:22:11.221Z,6.49
2023-04-25T23:30:34.450Z,6.51
2023-04-25T23:38:58.171Z,6.59
2023-04-25T23:47:21.488Z,6.61
2023-04-25T23:55:44.527Z,6.56
